Tor Futura — OZZE2 — position and weather

sailwx.info

Track history (hours):
 
Tides and Currents Weather Stations Pressure Air Temp Water Temp Dewpoint Dewpoint Depression Visibility Wind Speed Wind Dir Waves Ship Positions

Tor Futura

Last reported at 2016-Jul-28 23:32 UTC. Time now 2016-Jul-29 00:11 UTC.
Position N 42°09' E 005°56'.

Length 183.1 m; beam 25.2 m; draft 7.8 m.

Type: Ship. MMSI: 219927000.

Date/timePositionNaut miles runAvg speedWind from/ knotsBaromVisibWave heightAir tempDewpointWater temp
2016-Jul-28 23:32N 42°09' E 005°56'1313.5
2016-Jul-28 22:33N 42°20' E 005°47'1913.7
2016-Jul-28 21:09N 42°38' E 005°35'3914.1
2016-Jul-28 18:22N 43°12' E 005°09'6 0.5
2016-Jul-28 05:10N 43°18' E 005°13'812.5
2016-Jul-28 04:33N 43°10' E 005°12'3514.5
2016-Jul-28 02:07N 42°39' E 005°35'1314.2
2016-Jul-28 01:12N 42°28' E 005°44'2414.6
2016-Jul-27 23:33N 42°07' E 006°00'1414.3
2016-Jul-27 22:33N 41°54' E 006°09'3214.3
2016-Jul-27 20:18N 41°26' E 006°30'19214.8
2016-Jul-27 07:22N 38°41' E 008°37'  
2016-Jul-23 12:33N 43°17' E 005°10'3 0.3
2016-Jul-23 03:33N 43°14' E 005°11'32116.0
2016-Jul-22 07:33N 38°37' E 008°45'4916.4
2016-Jul-22 04:33N 38°07' E 009°34'1716.6
2016-Jul-22 03:33N 37°57' E 009°51'3316.2
2016-Jul-22 01:31N 37°37' E 010°24'1616.0
2016-Jul-22 00:33N 37°21' E 010°26'1616.2
2016-Jul-21 23:33N 37°05' E 010°26'18 1.1
2016-Jul-21 07:31N 36°48' E 010°16'44 7.1
2016-Jul-21 01:18N 37°32' E 010°15'1212.9
2016-Jul-21 00:21N 37°34' E 009°60'2413.2
2016-Jul-20 22:32N 37°50' E 009°38'1313.5
2016-Jul-20 21:33N 37°60' E 009°27'1313.5
2016-Jul-20 20:33N 38°09' E 009°14'1413.4
2016-Jul-20 19:32N 38°19' E 009°02'1413.6
2016-Jul-20 18:32N 38°29' E 008°50'1313.6
2016-Jul-20 17:33N 38°38' E 008°38'1413.5
2016-Jul-20 16:31N 38°48' E 008°25'1413.2
2016-Jul-20 15:28N 38°59' E 008°15'23213.6
2016-Jul-19 22:27N 42°22' E 005°47'3014.3
2016-Jul-19 20:19N 42°48' E 005°27'1113.6
2016-Jul-19 19:31N 42°58' E 005°20'1313.5
2016-Jul-19 18:32N 43°09' E 005°11'1110.7
2016-Jul-19 17:33N 43°20' E 005°15'5 4.2
2016-Jul-19 16:24N 43°19' E 005°22'0 0.0
2016-Jul-19 15:33N 43°19' E 005°22'0 0.0
2016-Jul-19 12:24N 43°19' E 005°22'0 0.0
2016-Jul-19 11:27N 43°19' E 005°22'0 0.0
2016-Jul-19 10:27N 43°19' E 005°22'0 0.0
2016-Jul-19 08:30N 43°19' E 005°22'0 0.0
2016-Jul-19 07:18N 43°19' E 005°22'0 0.0
2016-Jul-19 04:33N 43°19' E 005°22'0 0.0
2016-Jul-19 03:33N 43°19' E 005°22'0 0.0
2016-Jul-19 02:18N 43°19' E 005°22'0 0.0
2016-Jul-19 00:24N 43°19' E 005°22'  
Track history (hours):
 
Tides and Currents Weather Stations Pressure Air Temp Water Temp Dewpoint Dewpoint Depression Visibility Wind Speed Wind Dir Waves Ship Positions

Tor Futura

Last reported at 2016-Jul-28 23:32 UTC. Time now 2016-Jul-29 00:11 UTC.
Position N 42°09' E 005°56'.

Length 183.1 m; beam 25.2 m; draft 7.8 m.

Type: Ship. MMSI: 219927000.

Date/timePositionNaut miles runAvg speedWind from/ knotsBaromVisibWave heightAir tempDewpointWater temp
2016-Jul-28 23:32N 42°09' E 005°56'1313.5
2016-Jul-28 22:33N 42°20' E 005°47'1913.7
2016-Jul-28 21:09N 42°38' E 005°35'3914.1
2016-Jul-28 18:22N 43°12' E 005°09'6 0.5
2016-Jul-28 05:10N 43°18' E 005°13'812.5
2016-Jul-28 04:33N 43°10' E 005°12'3514.5
2016-Jul-28 02:07N 42°39' E 005°35'1314.2
2016-Jul-28 01:12N 42°28' E 005°44'2414.6
2016-Jul-27 23:33N 42°07' E 006°00'1414.3
2016-Jul-27 22:33N 41°54' E 006°09'3214.3
2016-Jul-27 20:18N 41°26' E 006°30'19214.8
2016-Jul-27 07:22N 38°41' E 008°37'  
2016-Jul-23 12:33N 43°17' E 005°10'3 0.3
2016-Jul-23 03:33N 43°14' E 005°11'32116.0
2016-Jul-22 07:33N 38°37' E 008°45'4916.4
2016-Jul-22 04:33N 38°07' E 009°34'1716.6
2016-Jul-22 03:33N 37°57' E 009°51'3316.2
2016-Jul-22 01:31N 37°37' E 010°24'1616.0
2016-Jul-22 00:33N 37°21' E 010°26'1616.2
2016-Jul-21 23:33N 37°05' E 010°26'18 1.1
2016-Jul-21 07:31N 36°48' E 010°16'44 7.1
2016-Jul-21 01:18N 37°32' E 010°15'1212.9
2016-Jul-21 00:21N 37°34' E 009°60'2413.2
2016-Jul-20 22:32N 37°50' E 009°38'1313.5
2016-Jul-20 21:33N 37°60' E 009°27'1313.5
2016-Jul-20 20:33N 38°09' E 009°14'1413.4
2016-Jul-20 19:32N 38°19' E 009°02'1413.6
2016-Jul-20 18:32N 38°29' E 008°50'1313.6
2016-Jul-20 17:33N 38°38' E 008°38'1413.5
2016-Jul-20 16:31N 38°48' E 008°25'1413.2
2016-Jul-20 15:28N 38°59' E 008°15'23213.6
2016-Jul-19 22:27N 42°22' E 005°47'3014.3
2016-Jul-19 20:19N 42°48' E 005°27'1113.6
2016-Jul-19 19:31N 42°58' E 005°20'1313.5
2016-Jul-19 18:32N 43°09' E 005°11'1110.7
2016-Jul-19 17:33N 43°20' E 005°15'5 4.2
2016-Jul-19 16:24N 43°19' E 005°22'0 0.0
2016-Jul-19 15:33N 43°19' E 005°22'0 0.0
2016-Jul-19 12:24N 43°19' E 005°22'0 0.0
2016-Jul-19 11:27N 43°19' E 005°22'0 0.0
2016-Jul-19 10:27N 43°19' E 005°22'0 0.0
2016-Jul-19 08:30N 43°19' E 005°22'0 0.0
2016-Jul-19 07:18N 43°19' E 005°22'0 0.0
2016-Jul-19 04:33N 43°19' E 005°22'0 0.0
2016-Jul-19 03:33N 43°19' E 005°22'0 0.0
2016-Jul-19 02:18N 43°19' E 005°22'0 0.0
2016-Jul-19 00:24N 43°19' E 005°22'  

Dump ship's entire track history